Time;durP1;ratioP1;P1;durP2;ratioP2;P2;SDS_P1;SDS_P2;PMS_P1;PMS_P2;Temp;Humidity;BMP_temperature;BMP_pressure;BME280_temperature;BME280_humidity;BME280_pressure;Samples;Min_cycle;Max_cycle;Signal;HPM_P1;HPM_P2
2022/10/09 00:00:49;;;;;;;24.40;21.90;;;23.20;99.90;;;;;;5074667;28;20556;-92
2022/10/09 00:03:20;;;;;;;27.57;22.93;;;23.20;99.90;;;;;;5074174;28;20203;-94
2022/10/09 00:05:51;;;;;;;25.63;22.10;;;23.20;99.90;;;;;;5075065;28;20207;-94
2022/10/09 00:08:26;;;;;;;27.50;24.53;;;23.20;99.90;;;;;;5058725;28;20214;-94
2022/10/09 00:10:57;;;;;;;26.17;23.37;;;23.20;99.90;;;;;;5079712;28;20276;-94
2022/10/09 00:13:29;;;;;;;31.00;25.57;;;23.10;99.90;;;;;;5077862;28;20207;-93
2022/10/09 00:16:05;;;;;;;31.13;25.10;;;23.00;99.90;;;;;;5074431;28;20223;-94
2022/10/09 00:18:36;;;;;;;31.23;26.23;;;23.00;99.90;;;;;;5073356;28;20203;-94
2022/10/09 00:21:15;;;;;;;27.67;24.77;;;22.90;99.90;;;;;;5073671;28;20214;-93
2022/10/09 00:23:50;;;;;;;31.03;25.77;;;22.90;99.90;;;;;;5060502;28;20203;-94
2022/10/09 00:26:21;;;;;;;28.93;25.87;;;22.70;99.90;;;;;;5063770;28;20215;-95
2022/10/09 00:28:52;;;;;;;31.37;27.00;;;22.60;99.90;;;;;;5061259;28;20213;-93
2022/10/09 00:31:23;;;;;;;27.90;25.00;;;22.50;99.90;;;;;;5060085;28;20294;-94
2022/10/09 00:33:55;;;;;;;30.13;26.20;;;22.40;99.90;;;;;;5060384;28;20675;-93
2022/10/09 00:36:28;;;;;;;28.07;25.17;;;22.30;99.90;;;;;;5058683;28;20659;-94
2022/10/09 00:39:01;;;;;;;31.17;25.70;;;22.20;99.90;;;;;;5060599;28;20231;-93
2022/10/09 00:41:33;;;;;;;28.50;24.20;;;22.20;99.90;;;;;;5059967;28;20224;-94
2022/10/09 00:44:26;;;;;;;25.97;23.10;;;22.10;99.90;;;;;;5059743;28;20766;-94
2022/10/09 00:46:57;;;;;;;27.70;24.70;;;22.10;99.90;;;;;;5058694;28;20283;-93
2022/10/09 00:49:30;;;;;;;27.60;24.37;;;22.00;99.90;;;;;;5057781;28;20212;-94
2022/10/09 00:52:07;;;;;;;28.03;25.07;;;21.90;99.90;;;;;;5058410;28;20234;-93
2022/10/09 00:54:42;;;;;;;27.57;24.77;;;21.80;99.90;;;;;;5059504;28;20200;-93
2022/10/09 00:57:13;;;;;;;29.30;25.33;;;21.80;99.90;;;;;;5060819;28;20207;-92
2022/10/09 00:59:44;;;;;;;30.50;25.23;;;21.70;99.90;;;;;;5060723;28;20208;-94
2022/10/09 01:02:16;;;;;;;31.03;25.20;;;21.60;99.90;;;;;;5056749;28;20262;-93
2022/10/09 01:04:48;;;;;;;28.40;25.50;;;21.50;99.90;;;;;;5057832;28;20560;-94
2022/10/09 01:07:34;;;;;;;29.13;24.97;;;21.30;99.90;;;;;;5059214;28;20212;-94
2022/10/09 01:10:22;;;;;;;28.33;25.17;;;21.20;99.90;;;;;;5041446;28;20208;-93
2022/10/09 01:13:07;;;;;;;34.97;27.33;;;21.10;99.90;;;;;;5057431;28;20208;-93
2022/10/09 01:15:48;;;;;;;31.30;25.70;;;20.90;99.90;;;;;;5057737;28;20252;-93
2022/10/09 01:18:30;;;;;;;32.83;26.17;;;20.80;99.90;;;;;;5057429;28;20239;-94
2022/10/09 01:21:07;;;;;;;29.33;26.17;;;20.70;99.90;;;;;;5057525;28;20215;-93
2022/10/09 01:24:09;;;;;;;31.43;27.70;;;20.60;99.90;;;;;;5056980;28;20227;-93
2022/10/09 01:27:10;;;;;;;32.93;26.87;;;20.50;99.90;;;;;;5057859;28;20204;-93
2022/10/09 01:29:46;;;;;;;32.80;27.43;;;20.30;99.90;;;;;;5058957;28;20216;-92
2022/10/09 01:32:21;;;;;;;30.50;26.43;;;20.20;99.90;;;;;;5062887;28;20212;-93
2022/10/09 01:34:54;;;;;;;30.27;26.90;;;20.10;99.90;;;;;;5078830;28;20270;-93
2022/10/09 01:37:28;;;;;;;30.70;27.37;;;19.90;99.90;;;;;;5061799;28;20248;-92
2022/10/09 01:40:01;;;;;;;30.33;27.17;;;19.80;99.90;;;;;;5077387;28;20227;-94
2022/10/09 01:42:37;;;;;;;30.63;27.37;;;19.70;99.90;;;;;;5069831;28;20232;-93
2022/10/09 01:45:11;;;;;;;31.67;27.90;;;19.50;99.90;;;;;;5073268;28;20204;-93
2022/10/09 01:47:42;;;;;;;33.50;27.40;;;19.40;99.90;;;;;;5062965;28;20219;-93
2022/10/09 01:50:23;;;;;;;31.93;28.10;;;19.30;99.90;;;;;;5059045;28;20204;-93
2022/10/09 01:53:00;;;;;;;32.40;28.47;;;19.20;99.90;;;;;;5059268;28;20208;-93
2022/10/09 01:55:40;;;;;;;33.83;29.47;;;19.00;99.90;;;;;;5060620;28;20298;-93
2022/10/09 01:58:23;;;;;;;38.53;29.23;;;18.90;99.90;;;;;;5055505;28;20611;-94
2022/10/09 02:01:01;;;;;;;37.97;28.93;;;18.80;99.90;;;;;;5057451;28;20683;-94
2022/10/09 02:03:34;;;;;;;35.40;29.33;;;18.70;99.90;;;;;;5057071;28;20241;-93
2022/10/09 02:06:08;;;;;;;32.50;29.07;;;18.70;99.90;;;;;;5057433;28;20649;-94
2022/10/09 02:08:42;;;;;;;36.67;30.13;;;18.60;99.90;;;;;;5057117;28;20310;-92
2022/10/09 02:11:15;;;;;;;33.10;28.97;;;18.50;99.90;;;;;;5039074;28;20212;-93
2022/10/09 02:13:52;;;;;;;36.53;30.77;;;18.40;99.90;;;;;;5055828;28;20196;-93
2022/10/09 02:16:30;;;;;;;34.63;30.90;;;18.30;99.90;;;;;;5039604;28;20204;-93
2022/10/09 02:19:12;;;;;;;35.20;29.77;;;18.30;99.90;;;;;;5062679;28;20200;-92
2022/10/09 02:21:46;;;;;;;36.73;30.40;;;18.10;99.90;;;;;;5062594;28;20332;-95
2022/10/09 02:24:25;;;;;;;32.50;29.03;;;18.00;99.90;;;;;;5061032;28;20261;-94
2022/10/09 02:26:57;;;;;;;34.03;29.10;;;18.00;99.90;;;;;;5056117;28;20204;-92
2022/10/09 02:29:30;;;;;;;33.40;29.43;;;17.90;99.90;;;;;;5055993;28;20227;-92
2022/10/09 02:32:02;;;;;;;36.73;29.57;;;17.90;99.90;;;;;;5055487;28;20238;-90
2022/10/09 02:34:33;;;;;;;34.47;28.67;;;17.80;99.90;;;;;;5055962;28;20219;-92
2022/10/09 02:37:06;;;;;;;33.90;28.60;;;17.70;99.90;;;;;;5056507;28;20216;-93
2022/10/09 02:39:38;;;;;;;34.47;28.00;;;17.70;99.90;;;;;;5056065;28;20208;-93
2022/10/09 02:42:09;;;;;;;33.53;28.30;;;17.60;99.90;;;;;;5055965;28;20208;-92
2022/10/09 02:44:43;;;;;;;32.07;27.83;;;17.60;99.90;;;;;;5064283;28;20266;-91
2022/10/09 02:47:14;;;;;;;30.70;27.40;;;17.50;99.90;;;;;;5062171;28;20283;-91
2022/10/09 02:49:46;;;;;;;35.20;27.20;;;17.50;99.90;;;;;;5062715;28;20680;-93
2022/10/09 02:52:17;;;;;;;33.93;27.03;;;17.50;99.90;;;;;;5056021;28;20260;-93
2022/10/09 02:54:48;;;;;;;29.50;26.37;;;17.40;99.90;;;;;;5056251;28;20653;-93
2022/10/09 02:57:19;;;;;;;34.00;27.50;;;17.40;99.90;;;;;;5056424;28;20267;-93
2022/10/09 02:59:52;;;;;;;30.27;26.00;;;17.30;99.90;;;;;;5055532;28;20212;-93
2022/10/09 03:02:23;;;;;;;30.43;25.93;;;17.30;99.90;;;;;;5054648;28;20322;-93
2022/10/09 03:04:55;;;;;;;33.53;26.70;;;17.20;99.90;;;;;;5055656;28;20204;-93
2022/10/09 03:07:26;;;;;;;29.53;25.50;;;17.20;99.90;;;;;;5055872;28;20208;-93
2022/10/09 03:10:00;;;;;;;29.50;25.00;;;17.20;99.90;;;;;;5054967;28;20283;-91
2022/10/09 03:12:31;;;;;;;28.30;25.17;;;17.10;99.90;;;;;;5056668;28;20208;-93
2022/10/09 03:15:05;;;;;;;35.30;26.80;;;17.10;99.90;;;;;;5057651;28;20208;-92
2022/10/09 03:17:36;;;;;;;29.13;25.10;;;17.00;99.90;;;;;;5054792;28;20256;-92
2022/10/09 03:20:09;;;;;;;28.37;24.23;;;17.00;99.90;;;;;;5058084;28;20590;-93
2022/10/09 03:22:40;;;;;;;30.57;23.97;;;16.90;99.90;;;;;;5056175;28;20231;-93
2022/10/09 03:25:11;;;;;;;30.10;25.07;;;16.90;99.90;;;;;;5058425;28;20212;-92
2022/10/09 03:27:43;;;;;;;26.83;23.93;;;16.80;99.90;;;;;;5055001;28;20243;-93
2022/10/09 03:30:18;;;;;;;27.23;24.33;;;16.70;99.90;;;;;;5055032;28;20204;-93
2022/10/09 03:32:50;;;;;;;27.77;23.53;;;16.70;99.90;;;;;;5036990;28;20656;-92
2022/10/09 03:35:21;;;;;;;28.87;24.67;;;16.60;99.90;;;;;;5054685;28;20664;-93
2022/10/09 03:37:52;;;;;;;30.03;23.43;;;16.60;99.90;;;;;;5054584;28;20215;-91
2022/10/09 03:40:23;;;;;;;28.07;23.27;;;16.50;99.90;;;;;;5054488;28;20672;-92
2022/10/09 03:42:54;;;;;;;29.13;23.50;;;16.50;99.90;;;;;;5054688;28;20212;-92
2022/10/09 03:45:28;;;;;;;30.77;24.57;;;16.50;99.90;;;;;;5054136;28;20208;-93
2022/10/09 03:47:59;;;;;;;29.23;23.17;;;16.40;99.90;;;;;;5054445;28;20208;-92
2022/10/09 03:50:30;;;;;;;28.97;24.03;;;16.40;99.90;;;;;;5054461;28;20203;-91
2022/10/09 03:53:01;;;;;;;27.73;24.10;;;16.40;99.90;;;;;;5053850;28;20188;-93
2022/10/09 03:55:33;;;;;;;30.90;24.03;;;16.30;99.90;;;;;;5053820;28;20208;-93
2022/10/09 03:58:04;;;;;;;26.53;23.73;;;16.30;99.90;;;;;;5055059;28;20208;-92
2022/10/09 04:00:38;;;;;;;29.60;24.23;;;16.20;99.90;;;;;;5054369;28;20211;-92
2022/10/09 04:03:09;;;;;;;27.83;24.17;;;16.10;99.90;;;;;;5053598;28;20208;-92
2022/10/09 04:05:40;;;;;;;26.83;23.37;;;16.10;99.90;;;;;;5055514;28;20291;-92
2022/10/09 04:08:11;;;;;;;30.27;23.47;;;16.00;99.90;;;;;;5061877;28;20204;-93
2022/10/09 04:10:42;;;;;;;31.53;24.47;;;16.00;99.90;;;;;;5054671;28;20204;-91
2022/10/09 04:13:13;;;;;;;30.90;24.27;;;16.00;99.90;;;;;;5054194;28;20230;-94
2022/10/09 04:15:53;;;;;;;27.30;24.40;;;16.00;99.90;;;;;;5039670;28;20220;-91
2022/10/09 04:18:24;;;;;;;27.47;23.33;;;15.90;99.90;;;;;;5063787;28;20203;-92
2022/10/09 04:20:58;;;;;;;26.97;23.47;;;15.90;99.90;;;;;;5071657;28;20279;-93
2022/10/09 04:23:29;;;;;;;28.73;24.37;;;15.90;99.90;;;;;;5051863;28;20216;-92
2022/10/09 04:26:01;;;;;;;28.47;23.37;;;15.80;99.90;;;;;;5056804;28;20212;-92
2022/10/09 04:28:34;;;;;;;30.53;23.10;;;15.80;99.90;;;;;;5063447;28;20214;-91
2022/10/09 04:31:07;;;;;;;28.03;23.33;;;15.80;99.90;;;;;;5072087;28;20208;-92
2022/10/09 04:33:39;;;;;;;28.10;24.20;;;15.70;99.90;;;;;;5071321;28;20233;-92
2022/10/09 04:36:10;;;;;;;27.80;24.07;;;15.70;99.90;;;;;;5060491;28;20212;-93
2022/10/09 04:38:41;;;;;;;30.63;25.07;;;15.60;99.90;;;;;;5061461;28;20212;-92
2022/10/09 04:41:13;;;;;;;30.47;23.93;;;15.60;99.90;;;;;;5065123;28;20212;-92
2022/10/09 04:43:44;;;;;;;29.17;24.13;;;15.60;99.90;;;;;;5064473;28;20228;-92
2022/10/09 04:46:17;;;;;;;31.83;23.90;;;15.50;99.90;;;;;;5026284;28;20238;-93
2022/10/09 04:48:49;;;;;;;29.17;23.97;;;15.60;99.90;;;;;;5055518;28;20204;-93
2022/10/09 04:51:22;;;;;;;29.80;23.73;;;15.60;99.90;;;;;;5054181;28;20200;-92
2022/10/09 04:53:53;;;;;;;33.50;24.83;;;15.50;99.90;;;;;;5053502;28;20217;-93
2022/10/09 04:56:29;;;;;;;29.23;24.90;;;15.50;99.90;;;;;;5038531;28;20231;-92
2022/10/09 04:59:00;;;;;;;30.90;25.63;;;15.40;99.90;;;;;;5056596;28;20197;-92
2022/10/09 05:01:34;;;;;;;30.27;25.43;;;15.40;99.90;;;;;;5059307;28;20215;-93
2022/10/09 05:04:08;;;;;;;28.07;24.33;;;15.40;99.90;;;;;;5055133;28;20246;-91
2022/10/09 05:06:39;;;;;;;27.60;24.57;;;15.40;99.90;;;;;;5058354;28;20249;-92
2022/10/09 05:09:10;;;;;;;28.20;24.40;;;15.30;99.90;;;;;;5059360;28;20207;-92
2022/10/09 05:11:41;;;;;;;28.83;25.07;;;15.30;99.90;;;;;;5058579;28;20204;-94
2022/10/09 05:14:13;;;;;;;27.53;24.53;;;15.30;99.90;;;;;;5062431;28;20218;-93
2022/10/09 05:16:46;;;;;;;32.33;26.00;;;15.20;99.90;;;;;;5044944;28;20212;-93
2022/10/09 05:19:37;;;;;;;29.63;24.10;;;15.20;99.90;;;;;;5061646;28;20291;-93
2022/10/09 05:22:08;;;;;;;31.70;24.47;;;15.20;99.90;;;;;;5058220;28;20239;-93
2022/10/09 05:24:39;;;;;;;26.57;23.63;;;15.20;99.90;;;;;;5060971;28;20247;-93
2022/10/09 05:27:13;;;;;;;29.47;24.80;;;15.10;99.90;;;;;;5061865;28;20212;-93
2022/10/09 05:29:45;;;;;;;30.33;25.10;;;15.10;99.90;;;;;;5060646;28;20204;-92
2022/10/09 05:32:19;;;;;;;31.53;24.33;;;15.10;99.90;;;;;;5058067;28;20216;-92
2022/10/09 05:34:50;;;;;;;29.30;24.57;;;15.00;99.90;;;;;;5058793;28;20218;-94
2022/10/09 05:37:21;;;;;;;30.70;24.93;;;15.00;99.90;;;;;;5067554;28;20192;-91
2022/10/09 05:39:52;;;;;;;31.70;25.27;;;14.90;99.90;;;;;;5076676;28;20200;-93
2022/10/09 05:42:23;;;;;;;33.20;24.90;;;14.90;99.90;;;;;;5076558;28;20223;-92
2022/10/09 05:44:55;;;;;;;33.20;25.13;;;14.80;99.90;;;;;;5068783;28;20228;-93
2022/10/09 05:47:30;;;;;;;29.73;24.93;;;14.80;99.90;;;;;;5059172;28;20239;-91
2022/10/09 05:50:01;;;;;;;29.87;24.83;;;14.80;99.90;;;;;;5058731;28;20204;-92
2022/10/09 05:52:35;;;;;;;28.80;24.80;;;14.70;99.90;;;;;;5057299;28;20243;-92
2022/10/09 05:55:06;;;;;;;29.43;24.03;;;14.70;99.90;;;;;;5057005;28;20208;-92
2022/10/09 05:57:38;;;;;;;30.67;25.47;;;14.70;99.90;;;;;;5056912;28;20204;-94
2022/10/09 06:00:11;;;;;;;31.23;25.30;;;14.60;99.90;;;;;;5056527;28;20287;-91
2022/10/09 06:02:45;;;;;;;28.87;25.37;;;14.60;99.90;;;;;;5055506;28;20200;-91
2022/10/09 06:05:17;;;;;;;28.80;24.37;;;14.60;99.90;;;;;;5039601;28;20263;-92
2022/10/09 06:07:49;;;;;;;27.90;24.93;;;14.60;99.90;;;;;;5056698;28;20208;-92
2022/10/09 06:10:21;;;;;;;29.83;24.77;;;14.60;99.90;;;;;;5056502;28;20568;-92
2022/10/09 06:12:52;;;;;;;28.87;24.70;;;14.50;99.90;;;;;;5057712;28;20216;-92
2022/10/09 06:15:24;;;;;;;30.10;25.50;;;14.50;99.90;;;;;;5058580;28;20208;-92
2022/10/09 06:17:57;;;;;;;31.43;23.97;;;14.50;99.90;;;;;;5059109;28;20215;-92
2022/10/09 06:20:28;;;;;;;26.70;23.80;;;14.50;99.90;;;;;;5045161;28;20263;-90
2022/10/09 06:23:00;;;;;;;32.70;24.40;;;14.40;99.90;;;;;;5058688;28;20204;-92
2022/10/09 06:25:31;;;;;;;27.77;24.43;;;14.40;99.90;;;;;;5056450;28;20236;-91
2022/10/09 06:28:02;;;;;;;27.80;24.17;;;14.30;99.90;;;;;;5061161;28;20211;-90
2022/10/09 06:30:34;;;;;;;28.33;24.10;;;14.30;99.90;;;;;;5057278;28;20208;-92
2022/10/09 06:33:10;;;;;;;27.97;23.43;;;14.30;99.90;;;;;;5066501;28;20203;-92
2022/10/09 06:35:42;;;;;;;29.90;23.30;;;14.30;99.90;;;;;;5081485;28;20210;-92
2022/10/09 06:38:14;;;;;;;25.97;23.07;;;14.30;99.90;;;;;;5096933;28;20196;-92
2022/10/09 06:40:45;;;;;;;26.27;22.23;;;14.30;99.90;;;;;;5093379;28;20223;-92
2022/10/09 06:43:17;;;;;;;28.37;23.40;;;14.30;99.90;;;;;;5091394;28;20212;-92
2022/10/09 06:45:49;;;;;;;28.60;22.63;;;14.30;99.90;;;;;;5070931;28;20280;-92
2022/10/09 06:48:22;;;;;;;25.17;21.97;;;14.20;99.90;;;;;;5077073;28;20207;-91
2022/10/09 06:50:53;;;;;;;28.60;23.33;;;14.20;99.90;;;;;;5076122;28;20203;-92
2022/10/09 06:53:25;;;;;;;25.57;22.37;;;14.20;99.90;;;;;;5074896;28;20216;-91
2022/10/09 06:55:58;;;;;;;25.47;22.53;;;14.20;99.90;;;;;;5075642;28;20200;-91
2022/10/09 06:58:30;;;;;;;27.27;22.80;;;14.20;99.90;;;;;;5075670;28;20691;-92
2022/10/09 07:01:06;;;;;;;24.77;21.40;;;14.20;99.90;;;;;;5075408;28;20218;-92
2022/10/09 07:03:40;;;;;;;28.00;22.10;;;14.20;99.90;;;;;;5074498;28;20214;-91
2022/10/09 07:06:13;;;;;;;24.63;21.00;;;14.20;99.90;;;;;;5060353;28;20240;-92
2022/10/09 07:08:46;;;;;;;25.03;20.93;;;14.20;99.90;;;;;;5078496;28;20211;-91
2022/10/09 07:11:20;;;;;;;27.47;22.93;;;14.10;99.90;;;;;;5058885;28;20617;-92
2022/10/09 07:13:52;;;;;;;25.93;21.53;;;14.10;99.90;;;;;;5074343;28;20200;-91
2022/10/09 07:16:25;;;;;;;25.07;22.07;;;14.10;99.90;;;;;;5074952;28;20223;-93
2022/10/09 07:19:02;;;;;;;26.17;21.30;;;14.00;99.90;;;;;;5074834;28;20219;-91
2022/10/09 07:21:34;;;;;;;27.30;21.83;;;14.00;99.90;;;;;;5075247;28;20207;-91
2022/10/09 07:24:06;;;;;;;28.73;22.23;;;14.00;99.90;;;;;;5074463;28;20199;-91
2022/10/09 07:26:40;;;;;;;24.70;22.10;;;13.90;99.90;;;;;;5075022;28;20242;-92
2022/10/09 07:29:13;;;;;;;23.93;21.13;;;13.90;99.90;;;;;;5074782;28;20230;-92
2022/10/09 07:31:44;;;;;;;26.70;20.73;;;13.90;99.90;;;;;;5073228;28;20282;-92
2022/10/09 07:34:17;;;;;;;26.83;22.07;;;13.90;99.90;;;;;;5074439;28;20248;-92
2022/10/09 07:36:49;;;;;;;25.77;21.47;;;13.80;99.90;;;;;;5075327;28;20208;-91
2022/10/09 07:39:20;;;;;;;26.20;21.90;;;13.90;99.90;;;;;;5074896;28;20215;-92
2022/10/09 07:41:52;;;;;;;27.40;21.73;;;13.80;99.90;;;;;;5074764;28;20208;-92
2022/10/09 07:44:24;;;;;;;27.40;22.10;;;13.80;99.90;;;;;;5070471;28;20222;-91
2022/10/09 07:46:55;;;;;;;25.40;21.73;;;13.80;99.90;;;;;;5079121;28;20237;-93
2022/10/09 07:49:28;;;;;;;24.70;22.00;;;13.80;99.90;;;;;;5096681;28;20194;-91
2022/10/09 07:51:59;;;;;;;25.80;22.30;;;13.80;99.90;;;;;;5078863;28;20215;-93
2022/10/09 07:54:31;;;;;;;28.77;23.53;;;13.70;99.90;;;;;;5076706;28;20204;-92
2022/10/09 07:57:02;;;;;;;26.87;23.60;;;13.70;99.90;;;;;;5075241;28;20267;-92
2022/10/09 07:59:34;;;;;;;30.20;23.33;;;13.70;99.90;;;;;;5075802;28;20204;-92
2022/10/09 08:02:05;;;;;;;31.43;23.27;;;13.70;99.90;;;;;;5058905;28;20239;-93
2022/10/09 08:04:38;;;;;;;27.13;24.23;;;13.70;99.90;;;;;;5076637;28;20200;-92
2022/10/09 08:07:10;;;;;;;27.90;23.27;;;13.60;99.90;;;;;;5072997;28;20240;-92
2022/10/09 08:09:42;;;;;;;27.90;23.30;;;13.70;99.90;;;;;;5061413;28;20204;-92
2022/10/09 08:12:13;;;;;;;27.60;22.93;;;13.60;99.90;;;;;;5055028;28;20219;-91
2022/10/09 08:14:45;;;;;;;29.77;23.63;;;13.60;99.90;;;;;;5055101;28;20210;-92
2022/10/09 08:17:17;;;;;;;28.43;23.03;;;13.60;99.90;;;;;;5054987;28;20204;-92
2022/10/09 08:19:50;;;;;;;29.33;23.50;;;13.50;99.90;;;;;;5054937;28;20215;-92
2022/10/09 08:22:21;;;;;;;29.00;23.77;;;13.50;99.90;;;;;;5053952;28;20231;-93
2022/10/09 08:24:52;;;;;;;27.93;24.10;;;13.50;99.90;;;;;;5053973;28;20668;-91
2022/10/09 08:27:23;;;;;;;28.30;22.83;;;13.50;99.90;;;;;;5053844;28;20239;-91
2022/10/09 08:29:54;;;;;;;28.03;22.70;;;13.50;99.90;;;;;;5053977;28;20215;-92
2022/10/09 08:32:25;;;;;;;26.17;22.53;;;13.40;99.90;;;;;;5053308;28;20683;-92
2022/10/09 08:34:59;;;;;;;27.70;22.17;;;13.40;99.90;;;;;;5036621;28;20220;-92
2022/10/09 08:37:29;;;;;;;26.27;22.43;;;13.40;99.90;;;;;;5054205;28;20212;-92
2022/10/09 08:40:00;;;;;;;31.50;22.37;;;13.40;99.90;;;;;;5053992;28;20208;-92
2022/10/09 08:42:40;;;;;;;25.27;22.37;;;13.40;99.90;;;;;;5054626;28;20204;-91
2022/10/09 08:45:17;;;;;;;26.87;21.43;;;13.30;99.90;;;;;;5057449;28;20220;-91
2022/10/09 08:47:52;;;;;;;25.03;21.37;;;13.30;99.90;;;;;;5057857;28;20214;-91
2022/10/09 08:50:29;;;;;;;28.50;21.50;;;13.30;99.90;;;;;;5057390;28;20643;-92
2022/10/09 08:53:05;;;;;;;28.60;22.27;;;13.30;99.90;;;;;;5039604;28;20605;-91
2022/10/09 08:55:42;;;;;;;26.63;22.27;;;13.30;99.90;;;;;;5057952;28;20663;-91
2022/10/09 08:58:17;;;;;;;24.20;21.60;;;13.20;99.90;;;;;;5059829;28;20648;-92
2022/10/09 09:00:51;;;;;;;26.93;22.73;;;13.20;99.90;;;;;;5040639;28;20600;-92
2022/10/09 09:03:40;;;;;;;25.90;20.87;;;13.20;99.90;;;;;;5058390;28;20602;-91
2022/10/09 09:06:21;;;;;;;28.23;22.00;;;13.20;99.90;;;;;;5057936;28;20316;-91
2022/10/09 09:09:00;;;;;;;26.40;21.90;;;13.10;99.90;;;;;;5049068;28;20545;-92
2022/10/09 09:11:40;;;;;;;27.87;22.33;;;13.10;99.90;;;;;;5079792;28;20263;-91
2022/10/09 09:14:23;;;;;;;25.73;21.87;;;13.10;99.90;;;;;;5077801;28;20264;-92
2022/10/09 09:17:02;;;;;;;25.30;21.47;;;13.10;99.90;;;;;;5077796;28;20211;-92
2022/10/09 09:19:44;;;;;;;24.67;21.73;;;13.10;99.90;;;;;;5077613;28;20199;-92
2022/10/09 09:22:18;;;;;;;27.20;22.10;;;13.10;99.90;;;;;;5077350;28;20558;-91
2022/10/09 09:24:52;;;;;;;25.50;22.13;;;13.10;99.90;;;;;;5079801;28;20208;-92
2022/10/09 09:27:28;;;;;;;34.53;23.70;;;13.10;99.90;;;;;;5080446;28;20227;-92
2022/10/09 09:30:03;;;;;;;27.33;22.90;;;13.00;99.90;;;;;;5078525;28;20303;-91
2022/10/09 09:32:35;;;;;;;29.83;23.30;;;13.00;99.90;;;;;;5077105;28;20279;-92
2022/10/09 09:35:14;;;;;;;32.10;23.57;;;13.00;99.90;;;;;;5070381;28;20283;-92
2022/10/09 09:37:47;;;;;;;28.33;23.57;;;13.00;99.90;;;;;;5057855;28;20208;-92
2022/10/09 09:40:20;;;;;;;30.47;25.57;;;13.00;99.90;;;;;;5059434;28;20675;-93
2022/10/09 09:43:18;;;;;;;31.33;24.90;;;12.90;99.90;;;;;;5056214;28;20621;-91
2022/10/09 09:45:50;;;;;;;30.73;23.67;;;12.80;99.90;;;;;;5056266;28;20657;-91
2022/10/09 09:48:27;;;;;;;28.87;23.77;;;12.80;99.90;;;;;;5056897;28;20295;-91
2022/10/09 09:50:59;;;;;;;28.60;24.10;;;12.80;99.90;;;;;;5056294;28;20207;-91
2022/10/09 09:53:55;;;;;;;30.93;24.60;;;12.80;99.90;;;;;;5039602;28;20254;-91
2022/10/09 09:56:36;;;;;;;30.27;24.73;;;12.70;99.90;;;;;;5056250;28;20215;-91
2022/10/09 09:59:32;;;;;;;29.30;24.70;;;12.70;99.90;;;;;;5055720;28;20200;-92
2022/10/09 10:02:11;;;;;;;28.47;24.40;;;12.60;99.90;;;;;;5054619;28;20204;-92
2022/10/09 10:04:52;;;;;;;31.40;25.83;;;12.60;99.90;;;;;;5055732;28;20208;-92
2022/10/09 10:07:31;;;;;;;31.57;25.50;;;12.60;99.90;;;;;;5055399;28;20228;-91
2022/10/09 10:10:16;;;;;;;30.73;25.83;;;12.50;99.90;;;;;;5056569;28;20210;-92
2022/10/09 10:12:57;;;;;;;30.47;24.83;;;12.50;99.90;;;;;;5054939;28;20205;-91
2022/10/09 10:15:30;;;;;;;32.03;26.07;;;12.50;99.90;;;;;;5056144;28;20302;-92
2022/10/09 10:18:04;;;;;;;31.40;26.60;;;12.50;99.90;;;;;;5056100;28;20295;-92
2022/10/09 10:20:43;;;;;;;32.37;25.23;;;12.50;99.90;;;;;;5056624;28;20213;-92
2022/10/09 10:23:36;;;;;;;32.97;28.20;;;12.40;99.90;;;;;;5055699;28;20270;-92
2022/10/09 10:26:22;;;;;;;33.03;28.10;;;12.40;99.90;;;;;;5040519;28;20215;-92
2022/10/09 10:28:58;;;;;;;34.33;28.50;;;12.30;99.90;;;;;;5058636;28;20208;-92
2022/10/09 10:31:51;;;;;;;35.67;27.70;;;12.30;99.90;;;;;;5056179;28;20204;-92
2022/10/09 10:34:27;;;;;;;33.00;28.30;;;12.30;99.90;;;;;;5058169;28;20222;-92
2022/10/09 10:37:04;;;;;;;37.10;28.67;;;12.30;99.90;;;;;;5056241;28;20208;-92
2022/10/09 10:39:42;;;;;;;35.23;27.63;;;12.30;99.90;;;;;;5060535;28;20200;-91
2022/10/09 10:42:22;;;;;;;37.27;30.83;;;12.20;99.90;;;;;;5056070;28;20657;-92
2022/10/09 10:45:02;;;;;;;36.57;29.87;;;12.20;99.90;;;;;;5055467;28;20212;-92
2022/10/09 10:47:40;;;;;;;38.87;29.70;;;12.20;99.90;;;;;;5040372;28;20231;-91
2022/10/09 10:50:15;;;;;;;37.77;30.43;;;12.20;99.90;;;;;;5058843;28;20219;-92
2022/10/09 10:53:01;;;;;;;36.47;29.03;;;12.20;99.90;;;;;;5038141;28;20580;-92
2022/10/09 10:55:44;;;;;;;40.93;32.20;;;12.20;99.90;;;;;;5039596;28;20245;-92
2022/10/09 10:58:26;;;;;;;37.83;30.40;;;12.20;99.90;;;;;;5040956;28;20215;-92
2022/10/09 11:01:12;;;;;;;38.80;31.40;;;12.20;99.90;;;;;;5061772;28;20204;-91
2022/10/09 11:03:58;;;;;;;40.80;32.00;;;12.20;99.90;;;;;;5059882;28;20256;-93
2022/10/09 11:06:37;;;;;;;36.47;31.33;;;12.20;99.90;;;;;;5075535;28;20192;-92
2022/10/09 11:09:19;;;;;;;42.00;33.07;;;12.20;99.90;;;;;;5054204;28;20204;-92
2022/10/09 11:11:55;;;;;;;44.33;31.67;;;12.10;99.90;;;;;;5057021;28;20292;-92
2022/10/09 11:14:41;;;;;;;40.93;31.60;;;12.10;99.90;;;;;;5057388;28;20248;-92
2022/10/09 11:17:25;;;;;;;40.83;33.30;;;12.10;99.90;;;;;;5039319;28;20215;-92
2022/10/09 11:20:12;;;;;;;41.40;33.87;;;12.00;99.90;;;;;;5038321;28;20211;-92
2022/10/09 11:23:03;;;;;;;41.93;34.80;;;12.00;99.90;;;;;;5037052;28;20578;-93
2022/10/09 11:25:44;;;;;;;41.10;33.43;;;12.00;99.90;;;;;;5055245;28;20232;-92
2022/10/09 11:28:18;;;;;;;46.03;36.47;;;12.00;99.90;;;;;;5037472;28;20231;-93
2022/10/09 11:30:56;;;;;;;43.47;36.73;;;11.90;99.90;;;;;;5037868;28;20569;-92
2022/10/09 11:33:35;;;;;;;46.90;38.13;;;11.90;99.90;;;;;;5053894;28;20344;-93
2022/10/09 11:36:16;;;;;;;42.57;35.10;;;11.90;99.90;;;;;;5037390;28;20212;-92
2022/10/09 11:38:52;;;;;;;44.93;36.17;;;11.90;99.90;;;;;;5054953;28;20215;-92
2022/10/09 11:41:23;;;;;;;49.87;38.57;;;11.90;99.90;;;;;;5054836;28;20252;-92
2022/10/09 11:44:10;;;;;;;45.87;38.17;;;11.90;99.90;;;;;;5054431;28;20215;-91
2022/10/09 11:46:50;;;;;;;48.87;40.07;;;11.90;99.90;;;;;;5022610;28;20219;-92
2022/10/09 11:49:27;;;;;;;49.97;40.13;;;11.90;99.90;;;;;;5057405;28;20218;-92
2022/10/09 11:52:04;;;;;;;48.93;40.27;;;11.90;99.90;;;;;;5055427;28;20204;-91
2022/10/09 11:54:36;;;;;;;51.33;40.63;;;11.80;99.90;;;;;;5060888;28;20230;-92
2022/10/09 11:57:08;;;;;;;48.27;40.43;;;11.70;99.90;;;;;;5076794;28;20222;-93
2022/10/09 11:59:44;;;;;;;52.60;40.20;;;11.70;99.90;;;;;;5075565;28;20214;-93
2022/10/09 12:02:27;;;;;;;55.37;41.83;;;11.80;99.90;;;;;;5073906;28;20239;-92
2022/10/09 12:04:59;;;;;;;49.13;40.50;;;11.80;99.90;;;;;;5073136;28;20235;-93
2022/10/09 12:07:34;;;;;;;47.53;40.60;;;11.80;99.90;;;;;;5055973;28;20311;-93
2022/10/09 12:10:10;;;;;;;48.50;39.17;;;11.80;99.90;;;;;;5054581;28;20286;-93
2022/10/09 12:12:41;;;;;;;50.73;41.13;;;11.80;99.90;;;;;;5053929;28;20278;-93
2022/10/09 12:15:25;;;;;;;49.30;42.17;;;11.80;99.90;;;;;;5037489;28;20200;-92
2022/10/09 12:17:58;;;;;;;47.77;39.60;;;11.80;99.90;;;;;;5039659;28;20200;-92
2022/10/09 12:20:30;;;;;;;48.93;39.63;;;11.80;99.90;;;;;;5061580;28;20204;-94
2022/10/09 12:23:01;;;;;;;50.77;41.10;;;11.70;99.90;;;;;;5057785;28;20230;-93
2022/10/09 12:25:55;;;;;;;48.77;40.33;;;11.70;99.90;;;;;;5062986;28;20208;-92
2022/10/09 12:28:32;;;;;;;50.33;40.10;;;11.70;99.90;;;;;;5060259;28;20230;-93
2022/10/09 12:31:08;;;;;;;48.90;39.90;;;11.70;99.90;;;;;;5058984;28;20235;-93
2022/10/09 12:33:47;;;;;;;49.93;40.73;;;11.70;99.90;;;;;;5058995;28;20254;-92
2022/10/09 12:36:25;;;;;;;52.00;41.10;;;11.70;99.90;;;;;;5058204;28;20215;-92
2022/10/09 12:38:57;;;;;;;52.37;40.90;;;11.60;99.90;;;;;;5058953;28;20209;-93
2022/10/09 12:41:32;;;;;;;48.93;41.37;;;11.70;99.90;;;;;;5058297;28;20204;-93
2022/10/09 12:44:07;;;;;;;46.87;40.50;;;11.70;99.90;;;;;;5057188;28;20660;-92
2022/10/09 12:46:40;;;;;;;53.90;41.70;;;11.70;99.90;;;;;;5040233;28;20211;-92
2022/10/09 12:49:21;;;;;;;53.13;41.23;;;11.60;99.90;;;;;;5058071;28;20236;-92
2022/10/09 12:51:53;;;;;;;54.17;42.17;;;11.60;99.90;;;;;;5057026;28;20211;-93
2022/10/09 12:54:28;;;;;;;52.13;43.07;;;11.50;99.90;;;;;;5058147;28;20208;-92
2022/10/09 12:57:01;;;;;;;57.57;43.47;;;11.50;99.90;;;;;;5057822;28;20207;-92
2022/10/09 12:59:34;;;;;;;51.90;42.60;;;11.40;99.90;;;;;;5057626;28;20223;-92
2022/10/09 13:02:06;;;;;;;52.17;44.00;;;11.40;99.90;;;;;;5040380;28;20257;-92
2022/10/09 13:04:39;;;;;;;53.80;43.47;;;11.30;99.90;;;;;;5057543;28;20649;-92
2022/10/09 13:07:22;;;;;;;52.43;42.27;;;11.40;99.90;;;;;;5057629;28;20215;-91